Terminal Aerodrome Forecast
Issued by NWS

Home | Current Version | Previous Version | Text Only | Print | Product List | Glossary On
Versions: 1 2 3 4 5 6 7 8 9 10 11 12 13 14 15 16
000
FTUS45 KTFX 012300
TAFCTB
TAF
KCTB 012334Z 0200/0224 18013KT P6SM BKN150
     FM020300 19015G21KT P6SM BKN120
     FM020800 25012G18KT P6SM SCT050 BKN090
     FM021500 35020G28KT 2SM -SN BLSN SCT006 OVC015=

USA.gov is the U.S. government's official web portal to all federal, state and local government web resources and services.